Terminal Aerodrome Forecast
Issued by NWS

Home | Current Version | Previous Version | Text Only | Print | Product List | Glossary On
Versions: 1 2 3 4 5 6 7 8 9 10 11 12
000
FTUS42 KTAE 250538
TAFVLD
TAF
KVLD 250538Z 2506/2606 VRB03KT P6SM SCT050
     FM251000 00000KT 6SM BR SCT005
     FM251400 07004KT P6SM SCT050=

USA.gov is the U.S. government's official web portal to all federal, state and local government web resources and services.